sensor_id;sensor_type;location;lat;lon;timestamp;pressure;altitude;pressure_sealevel;temperature;humidity
4814;BME280;15375;48.540;9.268;2023-07-28T00:01:29;96680.19;;;16.58;100.00
4814;BME280;15375;48.540;9.268;2023-07-28T00:03:55;96635.03;;;16.41;100.00
4814;BME280;15375;48.540;9.268;2023-07-28T00:06:20;96676.50;;;16.76;100.00
4814;BME280;15375;48.540;9.268;2023-07-28T00:08:45;96687.03;;;16.63;100.00
4814;BME280;15375;48.540;9.268;2023-07-28T00:11:11;96649.19;;;16.49;100.00
4814;BME280;15375;48.540;9.268;2023-07-28T00:13:40;96648.41;;;16.34;100.00
4814;BME280;15375;48.540;9.268;2023-07-28T00:16:07;96658.06;;;16.53;100.00
4814;BME280;15375;48.540;9.268;2023-07-28T00:18:32;96636.16;;;16.20;100.00
4814;BME280;15375;48.540;9.268;2023-07-28T00:20:58;96688.47;;;16.58;100.00
4814;BME280;15375;48.540;9.268;2023-07-28T00:23:24;96664.06;;;16.28;100.00
4814;BME280;15375;48.540;9.268;2023-07-28T00:25:50;96661.97;;;16.23;100.00
4814;BME280;15375;48.540;9.268;2023-07-28T00:28:15;96661.69;;;16.21;100.00
4814;BME280;15375;48.540;9.268;2023-07-28T00:30:40;96648.06;;;16.03;100.00
4814;BME280;15375;48.540;9.268;2023-07-28T00:33:06;96678.66;;;16.34;100.00
4814;BME280;15375;48.540;9.268;2023-07-28T00:35:31;96679.31;;;16.29;100.00
4814;BME280;15375;48.540;9.268;2023-07-28T00:37:57;96631.97;;;15.86;100.00
4814;BME280;15375;48.540;9.268;2023-07-28T00:40:22;96648.06;;;16.03;100.00
4814;BME280;15375;48.540;9.268;2023-07-28T00:42:48;96677.66;;;16.08;100.00
4814;BME280;15375;48.540;9.268;2023-07-28T00:45:13;96635.72;;;15.74;100.00
4814;BME280;15375;48.540;9.268;2023-07-28T00:47:39;96692.09;;;15.93;100.00
4814;BME280;15375;48.540;9.268;2023-07-28T00:50:05;96626.28;;;15.33;100.00
4814;BME280;15375;48.540;9.268;2023-07-28T00:52:31;96687.22;;;15.98;100.00
4814;BME280;15375;48.540;9.268;2023-07-28T00:54:57;96690.63;;;15.83;100.00
4814;BME280;15375;48.540;9.268;2023-07-28T00:57:22;96678.78;;;15.77;100.00
4814;BME280;15375;48.540;9.268;2023-07-28T00:59:48;96651.31;;;15.68;100.00
4814;BME280;15375;48.540;9.268;2023-07-28T01:02:13;96634.91;;;15.83;100.00
4814;BME280;15375;48.540;9.268;2023-07-28T01:04:39;96663.03;;;16.02;100.00
4814;BME280;15375;48.540;9.268;2023-07-28T01:07:44;96664.97;;;16.10;100.00
4814;BME280;15375;48.540;9.268;2023-07-28T01:10:13;96661.72;;;16.12;100.00
4814;BME280;15375;48.540;9.268;2023-07-28T01:12:40;96662.00;;;16.14;100.00
4814;BME280;15375;48.540;9.268;2023-07-28T01:15:06;96672.84;;;15.93;100.00
4814;BME280;15375;48.540;9.268;2023-07-28T01:17:31;96662.56;;;15.79;100.00
4814;BME280;15375;48.540;9.268;2023-07-28T01:19:57;96679.59;;;15.92;100.00
4814;BME280;15375;48.540;9.268;2023-07-28T01:22:47;96669.81;;;15.91;100.00
4814;BME280;15375;48.540;9.268;2023-07-28T01:28:01;96642.38;;;15.59;100.00
4814;BME280;15375;48.540;9.268;2023-07-28T01:30:27;96670.25;;;15.75;100.00
4814;BME280;15375;48.540;9.268;2023-07-28T01:32:55;96665.97;;;15.74;100.00
4814;BME280;15375;48.540;9.268;2023-07-28T01:35:21;96665.19;;;15.74;100.00
4814;BME280;15375;48.540;9.268;2023-07-28T01:37:47;96637.53;;;15.45;100.00
4814;BME280;15375;48.540;9.268;2023-07-28T01:40:16;96627.97;;;15.31;100.00
4814;BME280;15375;48.540;9.268;2023-07-28T01:42:42;96633.91;;;15.39;100.00
4814;BME280;15375;48.540;9.268;2023-07-28T01:45:07;96630.16;;;15.60;100.00
4814;BME280;15375;48.540;9.268;2023-07-28T01:47:33;96646.53;;;15.78;100.00
4814;BME280;15375;48.540;9.268;2023-07-28T01:49:58;96550.72;;;15.38;100.00
4814;BME280;15375;48.540;9.268;2023-07-28T01:52:24;96614.25;;;15.87;100.00
4814;BME280;15375;48.540;9.268;2023-07-28T01:54:49;96640.31;;;16.16;100.00
4814;BME280;15375;48.540;9.268;2023-07-28T01:57:15;96652.78;;;16.26;100.00
4814;BME280;15375;48.540;9.268;2023-07-28T01:59:41;96627.34;;;15.92;100.00
4814;BME280;15375;48.540;9.268;2023-07-28T02:02:06;96597.97;;;15.51;100.00
4814;BME280;15375;48.540;9.268;2023-07-28T02:04:31;96637.63;;;15.59;100.00
4814;BME280;15375;48.540;9.268;2023-07-28T02:06:57;96649.81;;;15.67;100.00
4814;BME280;15375;48.540;9.268;2023-07-28T02:09:22;96635.88;;;15.47;100.00
4814;BME280;15375;48.540;9.268;2023-07-28T02:11:47;96617.19;;;15.27;100.00
4814;BME280;15375;48.540;9.268;2023-07-28T02:14:13;96604.63;;;15.03;100.00
4814;BME280;15375;48.540;9.268;2023-07-28T02:16:38;96644.34;;;15.25;100.00
4814;BME280;15375;48.540;9.268;2023-07-28T02:19:03;96623.16;;;15.17;100.00
4814;BME280;15375;48.540;9.268;2023-07-28T02:21:29;96626.28;;;15.33;100.00
4814;BME280;15375;48.540;9.268;2023-07-28T02:23:54;96629.25;;;15.21;100.00
4814;BME280;15375;48.540;9.268;2023-07-28T02:26:20;96607.19;;;15.06;100.00
4814;BME280;15375;48.540;9.268;2023-07-28T02:28:45;96607.31;;;15.12;100.00
4814;BME280;15375;48.540;9.268;2023-07-28T02:31:10;96578.22;;;15.05;100.00
4814;BME280;15375;48.540;9.268;2023-07-28T02:33:36;96599.38;;;15.14;100.00
4814;BME280;15375;48.540;9.268;2023-07-28T02:36:03;96618.38;;;15.26;100.00
4814;BME280;15375;48.540;9.268;2023-07-28T02:38:29;96601.47;;;15.28;100.00
4814;BME280;15375;48.540;9.268;2023-07-28T02:40:54;96649.41;;;15.60;100.00
4814;BME280;15375;48.540;9.268;2023-07-28T02:43:19;96655.66;;;15.60;100.00
4814;BME280;15375;48.540;9.268;2023-07-28T02:45:48;96627.16;;;15.49;100.00
4814;BME280;15375;48.540;9.268;2023-07-28T02:48:14;96656.81;;;15.68;100.00
4814;BME280;15375;48.540;9.268;2023-07-28T02:50:45;96655.59;;;15.46;100.00
4814;BME280;15375;48.540;9.268;2023-07-28T02:53:10;96647.53;;;15.33;100.00
4814;BME280;15375;48.540;9.268;2023-07-28T02:55:41;96643.31;;;15.23;100.00
4814;BME280;15375;48.540;9.268;2023-07-28T02:58:06;96648.41;;;15.39;100.00
4814;BME280;15375;48.540;9.268;2023-07-28T03:00:32;96625.44;;;15.18;100.00
4814;BME280;15375;48.540;9.268;2023-07-28T03:02:57;96656.53;;;15.66;100.00
4814;BME280;15375;48.540;9.268;2023-07-28T03:05:22;96643.97;;;15.42;100.00
4814;BME280;15375;48.540;9.268;2023-07-28T03:07:48;96656.66;;;15.39;100.00
4814;BME280;15375;48.540;9.268;2023-07-28T03:10:14;96618.25;;;15.21;100.00
4814;BME280;15375;48.540;9.268;2023-07-28T03:12:41;96678.81;;;15.68;100.00
4814;BME280;15375;48.540;9.268;2023-07-28T03:15:07;96627.22;;;15.63;100.00
4814;BME280;15375;48.540;9.268;2023-07-28T03:17:32;96697.81;;;15.81;100.00
4814;BME280;15375;48.540;9.268;2023-07-28T03:19:58;96690.75;;;15.65;100.00
4814;BME280;15375;48.540;9.268;2023-07-28T03:22:23;96671.94;;;15.31;100.00
4814;BME280;15375;48.540;9.268;2023-07-28T03:24:48;96707.25;;;15.65;100.00
4814;BME280;15375;48.540;9.268;2023-07-28T03:27:15;96653.91;;;15.39;100.00
4814;BME280;15375;48.540;9.268;2023-07-28T03:29:40;96663.06;;;15.36;100.00
4814;BME280;15375;48.540;9.268;2023-07-28T03:32:05;96708.19;;;15.53;100.00
4814;BME280;15375;48.540;9.268;2023-07-28T03:34:31;96707.63;;;15.49;100.00
4814;BME280;15375;48.540;9.268;2023-07-28T03:36:56;96701.84;;;15.47;100.00
4814;BME280;15375;48.540;9.268;2023-07-28T03:39:21;96675.00;;;15.33;100.00
4814;BME280;15375;48.540;9.268;2023-07-28T03:41:47;96679.78;;;15.56;100.00
4814;BME280;15375;48.540;9.268;2023-07-28T03:44:12;96657.41;;;15.40;100.00
4814;BME280;15375;48.540;9.268;2023-07-28T03:46:37;96694.78;;;15.79;100.00
4814;BME280;15375;48.540;9.268;2023-07-28T03:49:13;96685.56;;;15.91;100.00
4814;BME280;15375;48.540;9.268;2023-07-28T03:51:38;96682.41;;;16.07;100.00
4814;BME280;15375;48.540;9.268;2023-07-28T03:54:14;96695.63;;;16.18;100.00
4814;BME280;15375;48.540;9.268;2023-07-28T03:56:39;96710.47;;;16.11;100.00
4814;BME280;15375;48.540;9.268;2023-07-28T03:59:05;96685.06;;;15.69;100.00
4814;BME280;15375;48.540;9.268;2023-07-28T04:01:31;96697.81;;;15.57;100.00
4814;BME280;15375;48.540;9.268;2023-07-28T04:03:56;96685.25;;;15.65;100.00
4814;BME280;15375;48.540;9.268;2023-07-28T04:06:39;96701.63;;;15.83;100.00
4814;BME280;15375;48.540;9.268;2023-07-28T04:09:06;96712.19;;;15.85;100.00
4814;BME280;15375;48.540;9.268;2023-07-28T04:11:32;96686.84;;;15.81;100.00
4814;BME280;15375;48.540;9.268;2023-07-28T04:13:57;96688.09;;;15.71;100.00
4814;BME280;15375;48.540;9.268;2023-07-28T04:16:22;96710.94;;;15.86;100.00
4814;BME280;15375;48.540;9.268;2023-07-28T04:18:48;96698.88;;;15.83;100.00
4814;BME280;15375;48.540;9.268;2023-07-28T04:21:13;96687.56;;;15.90;100.00
4814;BME280;15375;48.540;9.268;2023-07-28T04:23:38;96695.66;;;16.09;100.00
4814;BME280;15375;48.540;9.268;2023-07-28T04:26:04;96705.22;;;16.22;100.00
4814;BME280;15375;48.540;9.268;2023-07-28T04:28:29;96690.41;;;15.96;100.00
4814;BME280;15375;48.540;9.268;2023-07-28T04:30:54;96677.19;;;15.85;100.00
4814;BME280;15375;48.540;9.268;2023-07-28T04:33:20;96688.50;;;15.87;100.00
4814;BME280;15375;48.540;9.268;2023-07-28T04:35:45;96701.94;;;16.09;100.00
4814;BME280;15375;48.540;9.268;2023-07-28T04:38:10;96680.41;;;16.08;100.00
4814;BME280;15375;48.540;9.268;2023-07-28T04:40:36;96687.38;;;16.18;100.00
4814;BME280;15375;48.540;9.268;2023-07-28T04:43:01;96677.69;;;16.22;100.00
4814;BME280;15375;48.540;9.268;2023-07-28T04:45:26;96686.13;;;16.19;100.00
4814;BME280;15375;48.540;9.268;2023-07-28T04:47:52;96702.59;;;16.28;100.00
4814;BME280;15375;48.540;9.268;2023-07-28T04:50:18;96681.47;;;16.10;100.00
4814;BME280;15375;48.540;9.268;2023-07-28T04:52:43;96699.66;;;16.08;100.00
4814;BME280;15375;48.540;9.268;2023-07-28T04:55:08;96666.38;;;15.82;100.00
4814;BME280;15375;48.540;9.268;2023-07-28T04:57:34;96667.13;;;15.82;100.00
4814;BME280;15375;48.540;9.268;2023-07-28T04:59:59;96684.63;;;15.94;100.00
4814;BME280;15375;48.540;9.268;2023-07-28T05:02:25;96664.03;;;15.89;100.00
4814;BME280;15375;48.540;9.268;2023-07-28T05:04:50;96698.38;;;16.18;100.00
4814;BME280;15375;48.540;9.268;2023-07-28T05:07:15;96680.13;;;16.06;100.00
4814;BME280;15375;48.540;9.268;2023-07-28T05:09:41;96708.66;;;16.32;100.00
4814;BME280;15375;48.540;9.268;2023-07-28T05:12:06;96659.75;;;16.12;100.00
4814;BME280;15375;48.540;9.268;2023-07-28T05:14:32;96682.53;;;16.51;100.00
4814;BME280;15375;48.540;9.268;2023-07-28T05:16:57;96701.19;;;16.85;100.00
4814;BME280;15375;48.540;9.268;2023-07-28T05:19:22;96656.25;;;16.79;100.00
4814;BME280;15375;48.540;9.268;2023-07-28T05:21:48;96711.94;;;17.12;100.00
4814;BME280;15375;48.540;9.268;2023-07-28T05:24:13;96695.13;;;17.10;100.00
4814;BME280;15375;48.540;9.268;2023-07-28T05:26:38;96724.09;;;17.20;100.00
4814;BME280;15375;48.540;9.268;2023-07-28T05:29:04;96702.16;;;16.97;100.00
4814;BME280;15375;48.540;9.268;2023-07-28T05:31:29;96667.38;;;16.70;100.00
4814;BME280;15375;48.540;9.268;2023-07-28T05:33:54;96718.78;;;17.02;100.00
4814;BME280;15375;48.540;9.268;2023-07-28T05:36:20;96709.09;;;16.92;100.00
4814;BME280;15375;48.540;9.268;2023-07-28T05:38:45;96659.56;;;16.54;100.00
4814;BME280;15375;48.540;9.268;2023-07-28T05:41:10;96727.81;;;17.03;100.00
4814;BME280;15375;48.540;9.268;2023-07-28T05:43:36;96682.97;;;16.73;100.00
4814;BME280;15375;48.540;9.268;2023-07-28T05:46:01;96689.41;;;16.70;100.00
4814;BME280;15375;48.540;9.268;2023-07-28T05:48:27;96733.41;;;17.08;100.00
4814;BME280;15375;48.540;9.268;2023-07-28T05:50:52;96692.75;;;16.89;100.00
4814;BME280;15375;48.540;9.268;2023-07-28T05:53:20;96702.53;;;17.04;100.00
4814;BME280;15375;48.540;9.268;2023-07-28T05:55:46;96707.69;;;17.11;100.00
4814;BME280;15375;48.540;9.268;2023-07-28T05:58:11;96699.19;;;17.15;100.00
4814;BME280;15375;48.540;9.268;2023-07-28T06:00:39;96714.31;;;17.19;100.00
4814;BME280;15375;48.540;9.268;2023-07-28T06:03:05;96714.63;;;17.21;100.00
4814;BME280;15375;48.540;9.268;2023-07-28T06:05:30;96720.19;;;17.27;100.00
4814;BME280;15375;48.540;9.268;2023-07-28T06:07:56;96738.34;;;17.48;100.00
4814;BME280;15375;48.540;9.268;2023-07-28T06:10:21;96730.19;;;17.54;100.00
4814;BME280;15375;48.540;9.268;2023-07-28T06:12:47;96692.34;;;17.40;100.00
4814;BME280;15375;48.540;9.268;2023-07-28T06:15:12;96729.41;;;17.68;100.00
4814;BME280;15375;48.540;9.268;2023-07-28T06:17:37;96727.22;;;17.57;100.00
4814;BME280;15375;48.540;9.268;2023-07-28T06:20:05;96717.63;;;17.38;100.00
4814;BME280;15375;48.540;9.268;2023-07-28T06:22:31;96718.50;;;17.44;100.00
4814;BME280;15375;48.540;9.268;2023-07-28T06:24:56;96663.78;;;17.08;100.00
4814;BME280;15375;48.540;9.268;2023-07-28T06:27:22;96710.88;;;17.54;100.00
4814;BME280;15375;48.540;9.268;2023-07-28T06:29:47;96755.53;;;17.72;100.00
4814;BME280;15375;48.540;9.268;2023-07-28T06:32:12;96713.03;;;17.50;100.00
4814;BME280;15375;48.540;9.268;2023-07-28T06:34:38;96745.81;;;17.92;100.00
4814;BME280;15375;48.540;9.268;2023-07-28T06:37:03;96740.66;;;17.99;100.00
4814;BME280;15375;48.540;9.268;2023-07-28T06:39:29;96765.50;;;18.19;100.00
4814;BME280;15375;48.540;9.268;2023-07-28T06:41:55;96780.47;;;18.48;100.00
4814;BME280;15375;48.540;9.268;2023-07-28T06:44:20;96769.06;;;18.40;100.00
4814;BME280;15375;48.540;9.268;2023-07-28T06:46:46;96775.66;;;18.63;100.00
4814;BME280;15375;48.540;9.268;2023-07-28T06:49:12;96780.88;;;18.61;100.00
4814;BME280;15375;48.540;9.268;2023-07-28T06:51:37;96776.69;;;18.30;100.00
4814;BME280;15375;48.540;9.268;2023-07-28T06:54:03;96768.38;;;18.10;100.00
4814;BME280;15375;48.540;9.268;2023-07-28T06:56:28;96802.91;;;18.20;100.00
4814;BME280;15375;48.540;9.268;2023-07-28T06:58:54;96797.28;;;18.29;100.00
4814;BME280;15375;48.540;9.268;2023-07-28T07:01:19;96805.88;;;18.52;100.00
4814;BME280;15375;48.540;9.268;2023-07-28T07:03:45;96781.03;;;18.52;100.00
4814;BME280;15375;48.540;9.268;2023-07-28T07:06:10;96796.63;;;18.55;100.00
4814;BME280;15375;48.540;9.268;2023-07-28T07:08:36;96752.59;;;18.11;100.00
4814;BME280;15375;48.540;9.268;2023-07-28T07:11:01;96789.06;;;18.35;100.00
4814;BME280;15375;48.540;9.268;2023-07-28T07:13:27;96804.91;;;18.20;100.00
4814;BME280;15375;48.540;9.268;2023-07-28T07:15:52;96811.19;;;18.20;100.00
4814;BME280;15375;48.540;9.268;2023-07-28T07:18:17;96780.19;;;18.11;100.00
4814;BME280;15375;48.540;9.268;2023-07-28T07:20:43;96807.94;;;18.57;100.00
4814;BME280;15375;48.540;9.268;2023-07-28T07:23:08;96791.03;;;18.89;100.00
4814;BME280;15375;48.540;9.268;2023-07-28T07:25:33;96783.88;;;19.29;100.00
4814;BME280;15375;48.540;9.268;2023-07-28T07:27:59;96773.72;;;19.40;100.00
4814;BME280;15375;48.540;9.268;2023-07-28T07:30:24;96804.88;;;19.66;100.00
4814;BME280;15375;48.540;9.268;2023-07-28T07:32:50;96810.50;;;19.78;100.00
4814;BME280;15375;48.540;9.268;2023-07-28T07:35:15;96807.84;;;19.89;100.00
4814;BME280;15375;48.540;9.268;2023-07-28T07:37:41;96791.13;;;19.78;100.00
4814;BME280;15375;48.540;9.268;2023-07-28T07:40:07;96815.22;;;20.03;100.00
4814;BME280;15375;48.540;9.268;2023-07-28T07:43:02;96814.66;;;20.24;100.00
4814;BME280;15375;48.540;9.268;2023-07-28T07:45:29;96822.84;;;20.50;100.00
4814;BME280;15375;48.540;9.268;2023-07-28T07:47:54;96830.81;;;20.74;100.00
4814;BME280;15375;48.540;9.268;2023-07-28T07:50:20;96796.44;;;20.55;100.00
4814;BME280;15375;48.540;9.268;2023-07-28T07:52:47;96793.91;;;20.51;100.00
4814;BME280;15375;48.540;9.268;2023-07-28T07:55:12;96801.38;;;20.34;100.00
4814;BME280;15375;48.540;9.268;2023-07-28T07:57:38;96828.38;;;20.45;100.00
4814;BME280;15375;48.540;9.268;2023-07-28T08:00:05;96817.22;;;20.02;100.00
4814;BME280;15375;48.540;9.268;2023-07-28T08:02:30;96824.78;;;20.02;100.00
4814;BME280;15375;48.540;9.268;2023-07-28T08:04:56;96845.31;;;19.90;100.00
4814;BME280;15375;48.540;9.268;2023-07-28T08:07:21;96821.72;;;19.63;100.00
4814;BME280;15375;48.540;9.268;2023-07-28T08:09:48;96855.75;;;19.74;100.00
4814;BME280;15375;48.540;9.268;2023-07-28T08:12:14;96813.09;;;19.55;100.00
4814;BME280;15375;48.540;9.268;2023-07-28T08:14:40;96827.56;;;19.70;100.00
4814;BME280;15375;48.540;9.268;2023-07-28T08:17:05;96836.75;;;19.88;100.00
4814;BME280;15375;48.540;9.268;2023-07-28T08:19:30;96846.75;;;20.11;100.00
4814;BME280;15375;48.540;9.268;2023-07-28T08:21:56;96847.00;;;20.44;100.00
4814;BME280;15375;48.540;9.268;2023-07-28T08:24:21;96841.66;;;20.83;100.00
4814;BME280;15375;48.540;9.268;2023-07-28T08:26:47;96818.19;;;21.65;100.00
4814;BME280;15375;48.540;9.268;2023-07-28T08:29:12;96830.09;;;22.27;99.49
4814;BME280;15375;48.540;9.268;2023-07-28T08:31:37;96817.88;;;22.74;91.45
4814;BME280;15375;48.540;9.268;2023-07-28T08:34:03;96837.69;;;23.11;89.01
4814;BME280;15375;48.540;9.268;2023-07-28T08:36:28;96828.06;;;23.18;90.81
4814;BME280;15375;48.540;9.268;2023-07-28T08:38:54;96846.88;;;23.01;86.60
4814;BME280;15375;48.540;9.268;2023-07-28T08:41:19;96797.25;;;23.10;90.38
4814;BME280;15375;48.540;9.268;2023-07-28T08:43:45;96848.59;;;23.61;87.10
4814;BME280;15375;48.540;9.268;2023-07-28T08:46:11;96855.91;;;23.12;86.56
4814;BME280;15375;48.540;9.268;2023-07-28T08:48:37;96854.97;;;23.56;86.74
4814;BME280;15375;48.540;9.268;2023-07-28T08:51:03;96820.28;;;23.52;87.06
4814;BME280;15375;48.540;9.268;2023-07-28T08:53:33;96844.97;;;23.25;86.24
4814;BME280;15375;48.540;9.268;2023-07-28T08:55:58;96819.31;;;22.97;89.79
4814;BME280;15375;48.540;9.268;2023-07-28T08:58:24;96852.03;;;23.37;87.65
4814;BME280;15375;48.540;9.268;2023-07-28T09:00:51;96842.31;;;23.55;85.32
4814;BME280;15375;48.540;9.268;2023-07-28T09:03:18;96813.41;;;23.64;82.54
4814;BME280;15375;48.540;9.268;2023-07-28T09:05:44;96846.16;;;23.82;82.29
4814;BME280;15375;48.540;9.268;2023-07-28T09:08:15;96838.38;;;23.75;82.09
4814;BME280;15375;48.540;9.268;2023-07-28T09:10:42;96869.72;;;23.81;83.81
4814;BME280;15375;48.540;9.268;2023-07-28T09:13:12;96862.00;;;24.33;81.63
4814;BME280;15375;48.540;9.268;2023-07-28T09:15:38;96871.34;;;24.90;78.59
4814;BME280;15375;48.540;9.268;2023-07-28T09:18:03;96860.75;;;24.83;79.75
4814;BME280;15375;48.540;9.268;2023-07-28T09:20:36;96765.25;;;24.95;74.79
4814;BME280;15375;48.540;9.268;2023-07-28T09:23:02;96865.97;;;25.34;76.00
4814;BME280;15375;48.540;9.268;2023-07-28T09:25:29;96852.00;;;24.43;79.92
4814;BME280;15375;48.540;9.268;2023-07-28T09:27:55;96866.88;;;24.51;79.71
4814;BME280;15375;48.540;9.268;2023-07-28T09:30:22;96864.22;;;24.64;81.06
4814;BME280;15375;48.540;9.268;2023-07-28T09:32:50;96862.59;;;24.21;79.09
4814;BME280;15375;48.540;9.268;2023-07-28T09:35:16;96853.72;;;23.87;80.92
4814;BME280;15375;48.540;9.268;2023-07-28T09:37:43;96861.41;;;23.75;85.61
4814;BME280;15375;48.540;9.268;2023-07-28T09:40:12;96846.66;;;23.86;85.04
4814;BME280;15375;48.540;9.268;2023-07-28T09:42:41;96823.16;;;23.81;88.31
4814;BME280;15375;48.540;9.268;2023-07-28T09:45:08;96847.69;;;24.18;81.05
4814;BME280;15375;48.540;9.268;2023-07-28T09:47:35;96851.03;;;24.11;78.40
4814;BME280;15375;48.540;9.268;2023-07-28T09:50:03;96842.03;;;24.29;80.73
4814;BME280;15375;48.540;9.268;2023-07-28T09:52:35;96854.13;;;24.61;79.66
4814;BME280;15375;48.540;9.268;2023-07-28T09:55:07;96847.72;;;24.66;78.35
4814;BME280;15375;48.540;9.268;2023-07-28T09:57:39;96839.69;;;25.06;73.65
4814;BME280;15375;48.540;9.268;2023-07-28T10:00:08;96820.84;;;25.12;73.15
4814;BME280;15375;48.540;9.268;2023-07-28T10:02:35;96837.53;;;25.55;71.42
4814;BME280;15375;48.540;9.268;2023-07-28T10:05:01;96844.22;;;25.83;70.30
4814;BME280;15375;48.540;9.268;2023-07-28T10:07:27;96830.78;;;25.82;69.93
4814;BME280;15375;48.540;9.268;2023-07-28T10:09:53;96822.13;;;25.98;67.85
4814;BME280;15375;48.540;9.268;2023-07-28T10:12:23;96832.50;;;26.61;66.36
4814;BME280;15375;48.540;9.268;2023-07-28T10:15:00;96837.22;;;26.67;65.17
4814;BME280;15375;48.540;9.268;2023-07-28T10:17:31;96836.47;;;26.66;67.11
4814;BME280;15375;48.540;9.268;2023-07-28T10:19:57;96830.84;;;25.95;67.31
4814;BME280;15375;48.540;9.268;2023-07-28T10:22:26;96824.16;;;25.29;70.25
4814;BME280;15375;48.540;9.268;2023-07-28T10:24:56;96845.22;;;25.30;70.93
4814;BME280;15375;48.540;9.268;2023-07-28T10:27:50;96849.19;;;25.90;66.02
4814;BME280;15375;48.540;9.268;2023-07-28T10:30:15;96834.81;;;25.68;68.50
4814;BME280;15375;48.540;9.268;2023-07-28T10:32:47;96862.06;;;25.00;69.87
4814;BME280;15375;48.540;9.268;2023-07-28T10:37:45;96856.47;;;25.24;70.94
4814;BME280;15375;48.540;9.268;2023-07-28T10:42:52;96870.97;;;24.99;71.93
4814;BME280;15375;48.540;9.268;2023-07-28T10:45:18;96850.56;;;25.09;72.72
4814;BME280;15375;48.540;9.268;2023-07-28T10:47:44;96832.53;;;25.29;72.01
4814;BME280;15375;48.540;9.268;2023-07-28T10:50:10;96866.75;;;25.72;71.39
4814;BME280;15375;48.540;9.268;2023-07-28T10:52:43;96864.09;;;25.43;72.23
4814;BME280;15375;48.540;9.268;2023-07-28T10:55:16;96856.22;;;25.22;73.68
4814;BME280;15375;48.540;9.268;2023-07-28T10:57:43;96838.66;;;25.46;71.89
4814;BME280;15375;48.540;9.268;2023-07-28T11:00:10;96811.22;;;25.82;69.68
4814;BME280;15375;48.540;9.268;2023-07-28T11:02:47;96782.72;;;25.70;69.25
4814;BME280;15375;48.540;9.268;2023-07-28T11:05:29;96845.22;;;25.67;70.88
4814;BME280;15375;48.540;9.268;2023-07-28T11:07:59;96820.16;;;26.12;63.71
4814;BME280;15375;48.540;9.268;2023-07-28T11:10:28;96867.44;;;26.42;69.35
4814;BME280;15375;48.540;9.268;2023-07-28T11:12:54;96854.91;;;25.98;67.78
4814;BME280;15375;48.540;9.268;2023-07-28T11:15:23;96858.19;;;25.83;68.45
4814;BME280;15375;48.540;9.268;2023-07-28T11:17:50;96868.00;;;25.71;69.54
4814;BME280;15375;48.540;9.268;2023-07-28T11:20:27;96849.47;;;25.55;70.07
4814;BME280;15375;48.540;9.268;2023-07-28T11:23:03;96862.56;;;25.97;69.34
4814;BME280;15375;48.540;9.268;2023-07-28T11:25:30;96837.41;;;25.47;69.24
4814;BME280;15375;48.540;9.268;2023-07-28T11:27:56;96854.75;;;24.97;72.19
4814;BME280;15375;48.540;9.268;2023-07-28T11:30:23;96865.19;;;25.15;72.24
4814;BME280;15375;48.540;9.268;2023-07-28T11:32:50;96849.84;;;25.03;71.49
4814;BME280;15375;48.540;9.268;2023-07-28T11:35:19;96871.56;;;24.92;73.34
4814;BME280;15375;48.540;9.268;2023-07-28T11:37:50;96889.66;;;24.55;72.74
4814;BME280;15375;48.540;9.268;2023-07-28T11:40:17;96898.91;;;24.09;73.89
4814;BME280;15375;48.540;9.268;2023-07-28T11:42:55;96909.91;;;23.44;76.28
4814;BME280;15375;48.540;9.268;2023-07-28T11:45:21;96816.44;;;22.34;76.51
4814;BME280;15375;48.540;9.268;2023-07-28T11:47:57;96916.47;;;22.40;79.20
4814;BME280;15375;48.540;9.268;2023-07-28T11:50:30;96922.78;;;22.29;85.85
4814;BME280;15375;48.540;9.268;2023-07-28T11:52:59;96893.22;;;22.26;84.12
4814;BME280;15375;48.540;9.268;2023-07-28T11:55:24;96898.53;;;22.30;88.20
4814;BME280;15375;48.540;9.268;2023-07-28T11:57:52;96895.00;;;22.18;97.93
4814;BME280;15375;48.540;9.268;2023-07-28T12:00:18;96899.53;;;22.15;100.00
4814;BME280;15375;48.540;9.268;2023-07-28T12:03:00;96880.31;;;21.84;100.00
4814;BME280;15375;48.540;9.268;2023-07-28T12:05:26;96898.78;;;21.98;100.00
4814;BME280;15375;48.540;9.268;2023-07-28T12:07:52;96906.63;;;22.16;100.00
4814;BME280;15375;48.540;9.268;2023-07-28T12:10:18;96909.63;;;22.13;100.00
4814;BME280;15375;48.540;9.268;2023-07-28T12:12:45;96845.75;;;21.85;100.00
4814;BME280;15375;48.540;9.268;2023-07-28T12:15:27;96895.78;;;22.07;100.00
4814;BME280;15375;48.540;9.268;2023-07-28T12:18:02;96810.63;;;21.43;100.00
4814;BME280;15375;48.540;9.268;2023-07-28T12:20:33;96864.44;;;21.90;100.00
4814;BME280;15375;48.540;9.268;2023-07-28T12:22:59;96885.16;;;21.89;100.00
4814;BME280;15375;48.540;9.268;2023-07-28T12:25:24;96893.22;;;22.32;100.00
4814;BME280;15375;48.540;9.268;2023-07-28T12:27:50;96866.47;;;22.06;100.00
4814;BME280;15375;48.540;9.268;2023-07-28T12:30:15;96888.44;;;22.32;95.53
4814;BME280;15375;48.540;9.268;2023-07-28T12:32:41;96889.16;;;22.66;100.00
4814;BME280;15375;48.540;9.268;2023-07-28T12:35:06;96869.00;;;22.32;89.14
4814;BME280;15375;48.540;9.268;2023-07-28T12:37:32;96876.03;;;22.39;88.30
4814;BME280;15375;48.540;9.268;2023-07-28T12:39:57;96868.22;;;22.26;95.36
4814;BME280;15375;48.540;9.268;2023-07-28T12:42:23;96881.59;;;22.39;94.72
4814;BME280;15375;48.540;9.268;2023-07-28T12:44:48;96853.81;;;22.33;92.41
4814;BME280;15375;48.540;9.268;2023-07-28T12:47:13;96875.53;;;22.46;91.83
4814;BME280;15375;48.540;9.268;2023-07-28T12:49:39;96866.22;;;22.38;90.81
4814;BME280;15375;48.540;9.268;2023-07-28T12:52:05;96890.94;;;22.41;90.17
4814;BME280;15375;48.540;9.268;2023-07-28T12:54:32;96880.34;;;22.34;87.03
4814;BME280;15375;48.540;9.268;2023-07-28T12:56:57;96864.69;;;22.42;88.37
4814;BME280;15375;48.540;9.268;2023-07-28T12:59:23;96861.13;;;22.47;87.11
4814;BME280;15375;48.540;9.268;2023-07-28T13:01:48;96876.25;;;22.68;86.48
4814;BME280;15375;48.540;9.268;2023-07-28T13:04:14;96870.22;;;22.75;94.35
4814;BME280;15375;48.540;9.268;2023-07-28T13:06:39;96872.22;;;22.75;91.09
4814;BME280;15375;48.540;9.268;2023-07-28T13:09:06;96875.69;;;22.98;86.24